Udon Thani, Thailand

12:14 PM ICT on February 11, 2016 (GMT +0700)
Nongsai Udonthani | | Change Station
CLOSE
Current Station
Personal Weather Station
Location: Nong Sai, SURAT THANI
Elevation: 577 ft
Nearby Weather Stations

Elev 577 ft 17.41 °N, 102.83 °E | Updated 1 second ago

Clear
Clear
84.4 °F
Feels Like 83 °F
N
2.0
Wind Variable Wind from WNW
Gusts 2.0 mph

Today
High -- | Low -- °F
--% Chance of Precip.
Yesterday
High -- | Low -- °F
Precip. -- in
Pressure 29.92 in
Visibility 3.7 miles
Clouds
Heat Index 83 °F
Dew Point 55 °F
Humidity 37%
Rainfall 0.00 in
Snow Depth Not available.
6:37 AM 6:08 PM
Waxing Crescent, 9% visible
METAR VTUD 110500Z VRB03KT 6000 NSC 28/12 Q1013 A2993 NOSIG
Pressure 29.92 in
Visibility 3.7 miles
Clouds
Heat Index 83 °F
Dew Point 55 °F
Humidity 37%
Rainfall 0.00 in
Snow Depth Not available.
6:37 AM 6:08 PM
Waxing Crescent, 9% visible
METAR VTUD 110500Z VRB03KT 6000 NSC 28/12 Q1013 A2993 NOSIG

10-Day Weather Forecast

No radar image for this location.
×

Almanac

Astronomy

Feb. 11, 2016 Rise Set
Actual Time
Civil Twilight
Nautical Twilight
Astronomical Twilight
Moon
Length of Visible Light
Length of Day
Tomorrow will be .
, % of the Moon is Illuminated

Today's Extremes

Country Highs Country Lows

Community

WunderPhotos

Upload Photos

1,892,023 photos uploaded!

WunderBlog® & News

Nearby

Air Quality

  Air Quality AQ Index Pollutant
Not available.

Snow Depth

Station Depth Elevation

Earthquake Activity

City Distance Mag. Time & Date
Minimum magnitude displayed is 2.5.

Coastal Water Temperatures

Place Temperature

Stations

Nearby Weather Stations

Station Location Temp. Windchill Dew Point Humidity Wind Precip. Elev Updated Type